Time;durP1;ratioP1;P1;durP2;ratioP2;P2;SDS_P1;SDS_P2;PMS_P1;PMS_P2;Temp;Humidity;BMP_temperature;BMP_pressure;BME280_temperature;BME280_humidity;BME280_pressure;Samples;Min_cycle;Max_cycle;Signal;HPM_P1;HPM_P2
2023/02/01 00:00:11;;;;;;;36.25;34.85;;;7.00;95.90;;;;;;5046952;28;20029;-80
2023/02/01 00:02:39;;;;;;;37.72;36.33;;;7.00;95.90;;;;;;5049953;28;20514;-80
2023/02/01 00:05:09;;;;;;;36.78;35.38;;;7.00;95.90;;;;;;5047024;28;20087;-80
2023/02/01 00:07:36;;;;;;;39.13;37.63;;;7.00;95.90;;;;;;5030891;28;20052;-78
2023/02/01 00:10:03;;;;;;;37.85;36.45;;;7.00;95.90;;;;;;5048307;28;20422;-77
2023/02/01 00:12:30;;;;;;;37.85;36.45;;;7.00;95.90;;;;;;5046537;28;20043;-77
2023/02/01 00:14:56;;;;;;;39.13;37.65;;;6.90;95.90;;;;;;5046891;28;20079;-77
2023/02/01 00:17:22;;;;;;;37.90;36.50;;;6.90;95.90;;;;;;5047043;28;20029;-77
2023/02/01 00:19:48;;;;;;;37.55;36.15;;;6.90;95.90;;;;;;5046986;28;20481;-77
2023/02/01 00:22:13;;;;;;;40.10;38.60;;;6.90;95.90;;;;;;5047033;28;20029;-77
2023/02/01 00:24:39;;;;;;;38.50;37.10;;;6.90;95.90;;;;;;5046725;28;20042;-77
2023/02/01 00:27:05;;;;;;;38.70;37.30;;;6.90;95.90;;;;;;5030256;28;20072;-77
2023/02/01 00:29:31;;;;;;;37.15;35.75;;;6.90;95.90;;;;;;5030236;28;20056;-77
2023/02/01 00:31:57;;;;;;;37.05;35.65;;;6.90;95.90;;;;;;5030182;28;20496;-77
2023/02/01 00:34:22;;;;;;;37.70;36.30;;;6.90;95.90;;;;;;5030140;28;20571;-77
2023/02/01 00:36:48;;;;;;;38.70;37.30;;;6.90;95.90;;;;;;5030232;28;20033;-77
2023/02/01 00:39:14;;;;;;;35.38;34.08;;;6.90;95.90;;;;;;5030117;28;20061;-77
2023/02/01 00:41:40;;;;;;;36.33;34.92;;;6.90;95.90;;;;;;5046522;28;20044;-77
2023/02/01 00:44:06;;;;;;;35.85;34.55;;;6.90;95.90;;;;;;5046480;28;20288;-77
2023/02/01 00:46:32;;;;;;;36.58;35.17;;;7.00;96.00;;;;;;5046591;28;20025;-77
2023/02/01 00:48:58;;;;;;;35.10;33.80;;;7.10;96.00;;;;;;5047904;28;20514;-77
2023/02/01 00:51:26;;;;;;;35.13;33.83;;;7.20;96.00;;;;;;5046529;28;20493;-77
2023/02/01 00:53:52;;;;;;;34.78;33.47;;;7.20;95.90;;;;;;5047749;28;20108;-77
2023/02/01 00:56:18;;;;;;;35.20;33.90;;;7.20;96.00;;;;;;5029789;28;20141;-77
2023/02/01 00:58:44;;;;;;;33.95;32.65;;;7.30;96.00;;;;;;5029859;28;20116;-77
2023/02/01 01:01:14;;;;;;;33.72;32.42;;;7.30;96.00;;;;;;5029638;28;20077;-78
2023/02/01 01:04:01;;;;;;;35.13;33.83;;;7.40;96.00;;;;;;5047686;28;20548;-77
2023/02/01 01:06:32;;;;;;;36.20;34.85;;;7.40;95.80;;;;;;5046125;28;20478;-77
2023/02/01 01:09:00;;;;;;;34.00;32.70;;;7.40;95.90;;;;;;5048068;28;20029;-80
2023/02/01 01:11:29;;;;;;;34.03;32.72;;;7.40;95.90;;;;;;5047646;28;20059;-80
2023/02/01 01:13:57;;;;;;;35.55;34.25;;;7.40;95.90;;;;;;5047775;28;20131;-80
2023/02/01 01:16:25;;;;;;;34.38;33.08;;;7.50;96.00;;;;;;5046426;28;20544;-80
2023/02/01 01:18:52;;;;;;;36.70;35.30;;;7.60;96.00;;;;;;5046385;28;20035;-80
2023/02/01 01:21:18;;;;;;;37.75;36.35;;;7.60;95.90;;;;;;5047522;28;20104;-80
2023/02/01 01:23:45;;;;;;;40.35;38.85;;;7.60;95.90;;;;;;5030923;28;20547;-80
2023/02/01 01:26:23;;;;;;;41.60;40.10;;;7.50;95.80;;;;;;5050462;28;20043;-80
2023/02/01 01:28:49;;;;;;;42.67;41.08;;;7.40;95.80;;;;;;5050312;28;20429;-80
2023/02/01 01:31:16;;;;;;;43.42;41.83;;;7.30;95.80;;;;;;5050267;28;20040;-80
2023/02/01 01:33:43;;;;;;;44.63;42.95;;;7.30;95.90;;;;;;5051919;28;20029;-80
2023/02/01 01:36:11;;;;;;;45.72;44.03;;;7.30;96.00;;;;;;5034024;28;20029;-81
2023/02/01 01:38:38;;;;;;;46.00;44.30;;;7.40;96.00;;;;;;5051862;28;20107;-80
2023/02/01 01:41:04;;;;;;;47.17;45.47;;;7.40;96.00;;;;;;5051292;28;20033;-80
2023/02/01 01:43:57;;;;;;;49.25;47.45;;;7.40;95.90;;;;;;5051637;28;20383;-80
2023/02/01 01:46:33;;;;;;;49.40;47.60;;;7.40;95.90;;;;;;5050195;28;20116;-80
2023/02/01 01:49:13;;;;;;;53.45;51.45;;;7.40;95.80;;;;;;5051370;28;20039;-80
2023/02/01 01:51:48;;;;;;;53.22;51.22;;;7.30;95.80;;;;;;5050037;28;20155;-80
2023/02/01 01:54:20;;;;;;;55.35;53.35;;;7.30;96.00;;;;;;5051216;28;20021;-80
2023/02/01 01:56:55;;;;;;;57.78;55.67;;;7.20;95.80;;;;;;5051120;28;20079;-80
2023/02/01 01:59:23;;;;;;;57.58;55.47;;;7.10;95.80;;;;;;5049992;28;20029;-79
2023/02/01 02:01:49;;;;;;;57.08;54.97;;;7.10;95.90;;;;;;5051173;28;20474;-80
2023/02/01 02:04:15;;;;;;;61.47;59.17;;;7.00;95.90;;;;;;5033178;28;20112;-80
2023/02/01 02:06:57;;;;;;;64.72;62.33;;;7.00;95.90;;;;;;5033332;28;20036;-80
2023/02/01 02:09:23;;;;;;;61.22;58.92;;;7.00;95.90;;;;;;5051104;28;20060;-80
2023/02/01 02:11:49;;;;;;;65.40;63.00;;;6.90;95.90;;;;;;5033165;28;20116;-80
2023/02/01 02:14:18;;;;;;;64.47;62.08;;;6.90;95.90;;;;;;5049761;28;20457;-80
2023/02/01 02:17:03;;;;;;;64.57;62.17;;;6.90;95.90;;;;;;5050922;28;20060;-80
2023/02/01 02:20:05;;;;;;;68.43;65.93;;;6.90;95.90;;;;;;5051013;28;20029;-80
2023/02/01 02:22:54;;;;;;;64.53;62.13;;;6.90;95.90;;;;;;5050740;28;20021;-80
2023/02/01 02:25:52;;;;;;;65.47;63.08;;;6.80;95.90;;;;;;5050307;28;20025;-80
2023/02/01 02:28:56;;;;;;;66.53;64.13;;;6.80;95.90;;;;;;5049450;28;20025;-80
2023/02/01 02:32:06;;;;;;;62.10;59.80;;;6.80;95.90;;;;;;5049252;28;20021;-80
2023/02/01 02:34:46;;;;;;;65.00;62.60;;;6.80;95.90;;;;;;5049757;28;20037;-80
2023/02/01 02:37:38;;;;;;;61.55;59.25;;;6.80;95.90;;;;;;5048841;28;20032;-80
2023/02/01 02:40:21;;;;;;;60.60;58.40;;;6.80;95.90;;;;;;5050623;28;20024;-80
2023/02/01 02:48:37;;;;;;;54.15;52.15;;;6.90;96.00;;;;;;5050737;28;20432;-80
2023/02/01 03:05:20;;;;;;;49.90;48.10;;;6.90;96.00;;;;;;5050240;28;20074;-79
2023/02/01 03:08:07;;;;;;;49.45;47.65;;;7.00;96.00;;;;;;5049767;28;20111;-79
2023/02/01 03:10:51;;;;;;;50.35;48.45;;;6.90;96.00;;;;;;5048606;28;20048;-79
2023/02/01 03:13:41;;;;;;;50.25;48.35;;;7.00;96.00;;;;;;5049746;28;20025;-79
2023/02/01 03:16:28;;;;;;;51.10;49.20;;;7.00;96.00;;;;;;5049930;28;20028;-79
2023/02/01 03:19:03;;;;;;;51.38;49.47;;;7.00;96.00;;;;;;5049795;28;20037;-79
2023/02/01 03:21:45;;;;;;;51.17;49.28;;;6.90;95.90;;;;;;5049441;28;20029;-80
2023/02/01 03:24:21;;;;;;;52.03;50.13;;;6.90;95.90;;;;;;5048195;28;20393;-79
2023/02/01 03:26:55;;;;;;;52.00;50.10;;;6.90;96.00;;;;;;5049536;28;20083;-80
2023/02/01 03:29:36;;;;;;;50.28;48.42;;;7.00;96.00;;;;;;5048078;28;20439;-82
2023/02/01 03:32:02;;;;;;;52.70;50.80;;;7.00;96.00;;;;;;5049571;28;20025;-79
2023/02/01 03:34:28;;;;;;;54.90;52.90;;;7.00;96.20;;;;;;5048093;28;20083;-79
2023/02/01 03:37:01;;;;;;;55.28;53.28;;;7.00;96.00;;;;;;5049297;28;20035;-79
2023/02/01 03:39:41;;;;;;;54.72;52.72;;;7.00;96.00;;;;;;5047879;28;20033;-79
2023/02/01 03:42:20;;;;;;;57.20;55.00;;;7.00;96.00;;;;;;5049267;28;20025;-79
2023/02/01 03:45:03;;;;;;;56.05;53.95;;;7.00;96.00;;;;;;5047936;28;20029;-80
2023/02/01 03:47:34;;;;;;;59.42;57.22;;;7.00;96.00;;;;;;5047980;28;20083;-80
2023/02/01 03:50:04;;;;;;;57.13;55.03;;;7.00;96.00;;;;;;5047647;28;20025;-80
2023/02/01 03:52:37;;;;;;;55.42;53.42;;;7.00;96.00;;;;;;5047868;28;20424;-80
2023/02/01 03:55:05;;;;;;;54.22;52.22;;;7.00;96.00;;;;;;5047579;28;20036;-79
2023/02/01 03:57:37;;;;;;;51.88;49.97;;;7.00;96.10;;;;;;5048962;28;20076;-79
2023/02/01 04:00:08;;;;;;;49.80;48.00;;;7.10;96.20;;;;;;5048880;28;20021;-79
2023/02/01 04:02:34;;;;;;;50.25;48.35;;;7.30;96.20;;;;;;5048518;28;20196;-80
2023/02/01 04:05:00;;;;;;;47.35;45.58;;;7.30;96.20;;;;;;5047179;28;20025;-79
2023/02/01 04:07:26;;;;;;;46.00;44.30;;;7.40;96.20;;;;;;5047660;28;20036;-80
2023/02/01 04:09:51;;;;;;;44.95;43.25;;;7.60;96.20;;;;;;5030820;28;20032;-79
2023/02/01 04:12:17;;;;;;;46.13;44.42;;;7.60;96.10;;;;;;5030819;28;20393;-80
2023/02/01 04:14:43;;;;;;;45.17;43.47;;;7.70;96.10;;;;;;5030608;28;20040;-79
2023/02/01 04:17:08;;;;;;;43.03;41.42;;;7.80;96.10;;;;;;5047170;28;20037;-80
2023/02/01 04:19:34;;;;;;;41.38;39.88;;;7.80;96.10;;;;;;5030559;28;20033;-79
2023/02/01 04:22:00;;;;;;;42.88;41.28;;;7.90;96.10;;;;;;5030575;28;20036;-79
2023/02/01 04:24:25;;;;;;;43.35;41.75;;;7.90;96.00;;;;;;5014209;28;20087;-79
2023/02/01 04:26:51;;;;;;;39.95;38.45;;;7.90;96.00;;;;;;5030689;28;20037;-79
2023/02/01 04:29:17;;;;;;;41.70;40.15;;;7.90;96.10;;;;;;5014192;28;20035;-80
2023/02/01 04:31:42;;;;;;;40.25;38.75;;;7.90;96.10;;;;;;5030317;28;20481;-80
2023/02/01 04:34:08;;;;;;;39.28;37.78;;;8.00;96.10;;;;;;5048235;28;20101;-80
2023/02/01 04:36:34;;;;;;;38.15;36.75;;;8.00;96.10;;;;;;5047444;28;20490;-79
2023/02/01 04:38:59;;;;;;;39.17;37.67;;;8.00;96.10;;;;;;5030449;28;20033;-79
2023/02/01 04:41:25;;;;;;;38.65;37.25;;;7.90;96.00;;;;;;5030106;28;20551;-71
2023/02/01 04:43:52;;;;;;;38.30;36.90;;;7.90;96.00;;;;;;5046661;28;20053;-79
2023/02/01 04:46:18;;;;;;;38.10;36.70;;;7.80;96.00;;;;;;5014079;28;20037;-79
2023/02/01 04:48:43;;;;;;;38.35;36.95;;;7.80;96.10;;;;;;5029995;28;20465;-79
2023/02/01 04:51:10;;;;;;;39.13;37.65;;;7.80;96.10;;;;;;5046644;28;20436;-80
2023/02/01 04:53:35;;;;;;;39.75;38.25;;;7.80;96.10;;;;;;5046458;28;20028;-80
2023/02/01 04:56:01;;;;;;;38.72;37.22;;;7.70;96.00;;;;;;5046410;28;20037;-79
2023/02/01 04:58:27;;;;;;;38.85;37.45;;;7.70;96.10;;;;;;5046332;28;20083;-79
2023/02/01 05:00:53;;;;;;;37.25;35.85;;;7.70;96.00;;;;;;5030331;28;20037;-80
2023/02/01 05:03:19;;;;;;;37.92;36.53;;;7.60;96.00;;;;;;5013287;28;20074;-79
2023/02/01 05:05:46;;;;;;;36.80;35.40;;;7.60;96.10;;;;;;5047833;28;20033;-79
2023/02/01 05:08:12;;;;;;;38.53;37.13;;;7.60;96.10;;;;;;5047824;28;20450;-79
2023/02/01 05:10:38;;;;;;;39.00;37.55;;;7.50;96.10;;;;;;5046546;28;20112;-79
2023/02/01 05:15:49;;;;;;;35.90;34.60;;;7.40;96.10;;;;;;5033222;28;20074;-79
2023/02/01 05:18:15;;;;;;;35.28;33.97;;;7.40;96.10;;;;;;5030296;28;20041;-79
2023/02/01 05:20:41;;;;;;;33.85;32.55;;;7.40;96.20;;;;;;5029984;28;20036;-79
2023/02/01 05:23:07;;;;;;;34.55;33.25;;;7.50;96.30;;;;;;5047723;28;20033;-80
2023/02/01 05:25:32;;;;;;;33.95;32.65;;;7.60;96.20;;;;;;5013365;28;20464;-79
2023/02/01 05:27:58;;;;;;;32.95;31.75;;;7.60;96.20;;;;;;5046462;28;20112;-79
2023/02/01 05:30:24;;;;;;;34.05;32.75;;;7.80;96.20;;;;;;5046587;28;20052;-79
2023/02/01 05:32:51;;;;;;;32.22;31.02;;;7.80;96.20;;;;;;5047671;28;20029;-79
2023/02/01 05:35:16;;;;;;;31.67;30.48;;;7.90;96.20;;;;;;5047824;28;20033;-80
2023/02/01 05:37:42;;;;;;;35.97;34.65;;;8.00;96.20;;;;;;5030005;28;20029;-79
2023/02/01 05:40:08;;;;;;;32.63;31.42;;;8.00;96.10;;;;;;5047727;28;20033;-80
2023/02/01 05:42:34;;;;;;;;;;;8.00;96.10;;;;;;5046437;28;20477;-78
2023/02/01 05:45:00;;;;;;;33.03;31.80;;;8.10;96.10;;;;;;5047563;28;19964;-78
2023/02/01 05:47:26;;;;;;;35.30;34.00;;;8.00;96.00;;;;;;5047616;28;20029;-79
2023/02/01 05:49:51;;;;;;;37.63;36.22;;;7.90;95.90;;;;;;5047530;28;20155;-80
2023/02/01 05:52:20;;;;;;;37.88;36.47;;;7.80;95.90;;;;;;5047420;28;20037;-80
2023/02/01 05:54:48;;;;;;;38.22;36.83;;;7.80;96.00;;;;;;5047197;28;20028;-79
2023/02/01 05:57:15;;;;;;;39.85;38.35;;;7.70;96.00;;;;;;5047286;28;20076;-79
2023/02/01 05:59:41;;;;;;;;;;;7.60;96.00;;;;;;5046306;28;20032;-79
2023/02/01 06:02:08;;;;;;;39.80;38.33;;;7.60;96.10;;;;;;5047087;28;19915;-79
2023/02/01 06:04:34;;;;;;;41.45;39.95;;;7.60;96.10;;;;;;5046156;28;20044;-79
2023/02/01 06:06:59;;;;;;;41.90;40.30;;;7.50;96.10;;;;;;5047350;28;20025;-79
2023/02/01 06:09:25;;;;;;;39.72;38.22;;;7.50;96.10;;;;;;5046219;28;20060;-80
2023/02/01 06:11:51;;;;;;;41.92;40.33;;;7.50;96.10;;;;;;5048837;28;20465;-79
2023/02/01 06:14:17;;;;;;;42.63;41.03;;;7.50;96.40;;;;;;5049711;28;20079;-79
2023/02/01 06:16:43;;;;;;;41.58;40.08;;;7.50;96.20;;;;;;5049479;28;20033;-79
2023/02/01 06:19:09;;;;;;;42.80;41.20;;;7.50;96.40;;;;;;5016707;28;20071;-79
2023/02/01 06:21:36;;;;;;;44.78;43.08;;;7.60;96.20;;;;;;5032556;28;20028;-79
2023/02/01 06:24:01;;;;;;;44.08;42.47;;;7.60;96.20;;;;;;5032405;28;20080;-80
2023/02/01 06:26:28;;;;;;;43.33;41.72;;;7.70;96.20;;;;;;5050570;28;20473;-80
2023/02/01 06:28:55;;;;;;;43.95;42.35;;;7.70;96.20;;;;;;5050395;28;20055;-80
2023/02/01 06:31:21;;;;;;;43.67;42.08;;;7.70;96.20;;;;;;5049011;28;20021;-79
2023/02/01 06:33:47;;;;;;;;;;;7.70;96.10;;;;;;5049639;28;20033;-79
2023/02/01 06:36:13;;;;;;;41.05;39.55;;;7.80;96.10;;;;;;5049304;28;19905;-79
2023/02/01 06:38:39;;;;;;;41.20;39.70;;;7.80;96.10;;;;;;5049187;28;20098;-79
2023/02/01 06:41:05;;;;;;;39.47;37.97;;;7.80;96.10;;;;;;5049052;28;20440;-80
2023/02/01 06:43:32;;;;;;;39.97;38.47;;;7.90;96.20;;;;;;5049123;28;20048;-80
2023/02/01 06:46:11;;;;;;;40.15;38.65;;;7.90;96.20;;;;;;5049228;28;20028;-79
2023/02/01 06:48:37;;;;;;;37.42;36.03;;;7.90;96.20;;;;;;5048741;28;20029;-79
2023/02/01 06:51:03;;;;;;;40.55;39.05;;;8.00;96.10;;;;;;5048898;28;20056;-80
2023/02/01 06:53:29;;;;;;;40.90;39.40;;;8.00;96.10;;;;;;5048841;28;20037;-79
2023/02/01 06:56:04;;;;;;;39.22;37.72;;;8.00;96.00;;;;;;5050030;28;20034;-79
2023/02/01 06:58:32;;;;;;;41.85;40.25;;;7.90;96.10;;;;;;5048661;28;20036;-79
2023/02/01 07:01:03;;;;;;;41.88;40.28;;;7.80;96.10;;;;;;5048452;28;20037;-79
2023/02/01 07:03:29;;;;;;;39.45;37.95;;;7.80;96.10;;;;;;5048416;28;20033;-79
2023/02/01 07:05:58;;;;;;;38.65;37.20;;;7.80;96.20;;;;;;5049219;28;20029;-79
2023/02/01 07:08:24;;;;;;;39.38;37.88;;;7.80;96.20;;;;;;5032408;28;20082;-80
2023/02/01 07:10:49;;;;;;;39.25;37.75;;;7.90;96.30;;;;;;5032102;28;20033;-79
2023/02/01 07:13:15;;;;;;;38.75;37.33;;;7.90;96.20;;;;;;5048207;28;20318;-80
2023/02/01 07:15:41;;;;;;;39.17;37.67;;;7.90;96.20;;;;;;5048295;28;20036;-79
2023/02/01 07:18:06;;;;;;;41.80;40.22;;;7.90;96.20;;;;;;5048003;28;20106;-80
2023/02/01 07:20:32;;;;;;;40.83;39.33;;;8.00;96.20;;;;;;5031386;28;20123;-80
2023/02/01 07:22:58;;;;;;;42.28;40.67;;;8.00;96.20;;;;;;5031807;28;20106;-80
2023/02/01 07:25:24;;;;;;;40.15;38.65;;;8.00;96.20;;;;;;5049520;28;20231;-79
2023/02/01 07:27:49;;;;;;;43.17;41.58;;;8.00;96.20;;;;;;5031582;28;20415;-79
2023/02/01 07:30:15;;;;;;;41.78;40.17;;;8.00;96.20;;;;;;5031922;28;20029;-80
2023/02/01 07:32:41;;;;;;;41.17;39.67;;;8.00;96.30;;;;;;5047810;28;20028;-80
2023/02/01 07:35:07;;;;;;;42.25;40.65;;;8.00;96.30;;;;;;5031290;28;20026;-79
2023/02/01 07:37:33;;;;;;;42.35;40.75;;;8.00;96.30;;;;;;5031775;28;20063;-80
2023/02/01 07:39:58;;;;;;;44.17;42.58;;;8.00;96.20;;;;;;5032635;28;20295;-80
2023/02/01 07:42:24;;;;;;;45.00;43.30;;;8.00;96.20;;;;;;5048302;28;20548;-77
2023/02/01 07:44:50;;;;;;;44.95;43.25;;;8.00;96.20;;;;;;5049404;28;20048;-80
2023/02/01 07:47:15;;;;;;;44.20;42.60;;;7.90;96.20;;;;;;5047971;28;20570;-79
2023/02/01 07:49:41;;;;;;;45.15;43.45;;;7.90;96.20;;;;;;5047566;28;20071;-80
2023/02/01 07:52:07;;;;;;;45.80;44.10;;;7.90;96.20;;;;;;5031221;28;20040;-79
2023/02/01 07:54:32;;;;;;;46.17;44.47;;;7.90;96.30;;;;;;5047735;28;20128;-79
2023/02/01 07:56:58;;;;;;;47.10;45.30;;;7.90;96.20;;;;;;5047449;28;20142;-79
2023/02/01 07:59:24;;;;;;;48.53;46.72;;;7.90;96.20;;;;;;5047158;28;20040;-80
2023/02/01 08:01:49;;;;;;;50.15;48.25;;;7.90;96.30;;;;;;5048510;28;20055;-80
2023/02/01 08:04:15;;;;;;;48.75;46.95;;;7.90;96.30;;;;;;5046559;28;20152;-79
2023/02/01 08:06:41;;;;;;;49.05;47.25;;;7.90;96.30;;;;;;5030553;28;20029;-79
2023/02/01 08:09:08;;;;;;;52.35;50.35;;;8.00;96.30;;;;;;5047124;28;20040;-80
2023/02/01 08:11:34;;;;;;;48.88;47.08;;;8.00;96.30;;;;;;5047973;28;20033;-79
2023/02/01 08:14:00;;;;;;;49.90;48.00;;;8.10;96.30;;;;;;5047129;28;20118;-80
2023/02/01 08:16:26;;;;;;;49.85;47.95;;;8.10;96.30;;;;;;5048192;28;20036;-80
2023/02/01 08:18:52;;;;;;;49.55;47.67;;;8.10;96.30;;;;;;5047063;28;20029;-80
2023/02/01 08:21:21;;;;;;;51.03;49.13;;;8.20;96.40;;;;;;5048169;28;20029;-80
2023/02/01 08:23:47;;;;;;;49.10;47.30;;;8.20;96.40;;;;;;5048063;28;20020;-80
2023/02/01 08:26:25;;;;;;;47.53;45.72;;;8.20;96.40;;;;;;5048244;28;20024;-79
2023/02/01 08:28:56;;;;;;;48.10;46.30;;;8.40;96.40;;;;;;5048242;28;20440;-80
2023/02/01 08:31:24;;;;;;;47.40;45.60;;;8.40;96.40;;;;;;5046663;28;20035;-80
2023/02/01 08:33:55;;;;;;;45.63;43.92;;;8.50;96.40;;;;;;5048098;28;20127;-80
2023/02/01 08:36:21;;;;;;;45.90;44.20;;;8.60;96.30;;;;;;5048248;28;20448;-79
2023/02/01 08:38:47;;;;;;;;;;;8.60;96.30;;;;;;5048399;28;20040;-79
2023/02/01 08:41:17;;;;;;;46.78;45.08;;;8.70;96.30;;;;;;5048903;28;19913;-79
2023/02/01 08:43:43;;;;;;;45.35;43.65;;;8.80;96.30;;;;;;5046573;28;20112;-79
2023/02/01 08:46:10;;;;;;;45.13;43.42;;;8.80;96.30;;;;;;5046314;28;20043;-79
2023/02/01 08:48:36;;;;;;;46.47;44.70;;;8.80;96.20;;;;;;5029948;28;20032;-79
2023/02/01 08:51:03;;;;;;;;;;;8.80;96.20;;;;;;5047331;28;20486;-79
2023/02/01 08:53:29;;;;;;;43.25;41.65;;;8.90;96.20;;;;;;5046646;28;19994;-79
2023/02/01 08:55:58;;;;;;;42.67;41.08;;;8.90;96.20;;;;;;5048337;28;20075;-71
2023/02/01 08:58:24;;;;;;;40.80;39.30;;;8.90;96.30;;;;;;5047033;28;20040;-79
2023/02/01 09:00:50;;;;;;;40.30;38.80;;;9.00;96.40;;;;;;5029604;28;20037;-78
2023/02/01 09:03:16;;;;;;;38.95;37.45;;;9.10;96.40;;;;;;5046965;28;20090;-79
2023/02/01 09:05:42;;;;;;;40.20;38.70;;;9.20;96.40;;;;;;5046227;28;20393;-78
2023/02/01 09:08:08;;;;;;;37.92;36.53;;;9.30;96.40;;;;;;5045855;28;20033;-79
2023/02/01 09:10:36;;;;;;;37.20;35.80;;;9.30;96.40;;;;;;5046037;28;20021;-79
2023/02/01 09:13:05;;;;;;;36.92;35.53;;;9.40;96.30;;;;;;5052176;28;20417;-80
2023/02/01 09:15:31;;;;;;;36.28;34.88;;;9.50;96.30;;;;;;5030488;28;20029;-80
2023/02/01 09:17:56;;;;;;;38.80;37.35;;;9.50;96.30;;;;;;5013237;28;20079;-81
2023/02/01 09:20:23;;;;;;;36.53;35.13;;;9.60;96.30;;;;;;5030657;28;20541;-83
2023/02/01 09:22:51;;;;;;;33.38;32.08;;;9.60;96.40;;;;;;5047066;28;20445;-81
2023/02/01 09:25:17;;;;;;;32.47;31.27;;;9.80;96.50;;;;;;5046784;28;20024;-81
2023/02/01 09:27:43;;;;;;;32.78;31.58;;;9.90;96.50;;;;;;5048335;28;20043;-80
2023/02/01 09:30:09;;;;;;;33.95;32.65;;;10.00;96.40;;;;;;5047264;28;20036;-85
2023/02/01 09:32:35;;;;;;;;;;;10.10;96.30;;;;;;5031435;28;20028;-85
2023/02/01 09:35:01;;;;;;;34.17;32.88;;;10.10;96.30;;;;;;5048866;28;19909;-80
2023/02/01 09:37:27;;;;;;;35.10;33.80;;;10.00;96.20;;;;;;5052714;28;20033;-84
2023/02/01 09:39:53;;;;;;;36.63;35.22;;;10.00;96.20;;;;;;5048405;28;20401;-85
2023/02/01 09:42:49;;;;;;;35.28;33.97;;;9.90;96.20;;;;;;5049134;28;20550;-84
2023/02/01 09:45:28;;;;;;;36.58;35.17;;;9.90;96.20;;;;;;5048723;28;20393;-85
2023/02/01 09:47:58;;;;;;;37.60;36.20;;;9.80;96.30;;;;;;5052719;28;20385;-84
2023/02/01 09:50:44;;;;;;;36.97;35.58;;;9.80;96.30;;;;;;5042563;28;20118;-84
2023/02/01 09:53:24;;;;;;;36.22;34.83;;;9.80;96.30;;;;;;5035338;28;20047;-81
2023/02/01 09:55:54;;;;;;;36.33;34.92;;;9.80;96.30;;;;;;5040501;28;20045;-84
2023/02/01 09:58:22;;;;;;;35.47;34.17;;;9.90;96.40;;;;;;5046440;28;20060;-85
2023/02/01 10:00:53;;;;;;;36.30;34.90;;;9.90;96.40;;;;;;5032500;28;20104;-84
2023/02/01 10:03:20;;;;;;;35.60;34.30;;;10.00;96.40;;;;;;5032210;28;20497;-82
2023/02/01 10:06:04;;;;;;;35.63;34.33;;;10.10;96.40;;;;;;5031316;28;20039;-84
2023/02/01 10:08:36;;;;;;;35.47;34.17;;;10.20;96.50;;;;;;5033052;28;20540;-84
2023/02/01 10:11:47;;;;;;;33.97;32.67;;;10.30;96.50;;;;;;5032803;28;20026;-84
2023/02/01 10:14:13;;;;;;;35.60;34.30;;;10.40;96.50;;;;;;5034642;28;20021;-84
2023/02/01 10:17:00;;;;;;;37.53;36.13;;;10.40;96.40;;;;;;5051856;28;20040;-85
2023/02/01 10:19:53;;;;;;;38.00;36.60;;;10.40;96.40;;;;;;5034924;28;20030;-84
2023/02/01 10:22:37;;;;;;;39.08;37.60;;;10.40;96.30;;;;;;5032553;28;20440;-82
2023/02/01 10:25:28;;;;;;;41.65;40.08;;;10.40;96.30;;;;;;5047059;28;20066;-84
2023/02/01 10:27:55;;;;;;;44.92;43.22;;;10.40;96.30;;;;;;5035850;28;20028;-84
2023/02/01 10:30:30;;;;;;;44.95;43.25;;;10.40;96.30;;;;;;5025925;28;20025;-84
2023/02/01 10:33:05;;;;;;;44.65;42.95;;;10.40;96.30;;;;;;5051779;28;20501;-83
2023/02/01 10:35:36;;;;;;;44.38;42.67;;;10.50;96.40;;;;;;5052969;28;20531;-83
2023/02/01 10:38:05;;;;;;;45.05;43.35;;;10.40;96.40;;;;;;5052740;28;20021;-83
2023/02/01 10:40:31;;;;;;;42.63;41.03;;;10.50;96.50;;;;;;5044072;28;20076;-84
2023/02/01 10:43:01;;;;;;;;;;;10.70;96.70;;;;;;5042879;28;20171;-85
2023/02/01 10:45:32;;;;;;;33.42;32.13;;;10.90;96.90;;;;;;5041459;28;19912;-84
2023/02/01 10:47:59;;;;;;;31.52;30.33;;;11.30;97.00;;;;;;5048494;28;20409;-80
2023/02/01 10:50:34;;;;;;;30.00;28.90;;;11.70;96.80;;;;;;5031756;28;20032;-82
2023/02/01 10:53:06;;;;;;;32.72;31.52;;;11.90;96.60;;;;;;5031896;28;20334;-83
2023/02/01 10:55:51;;;;;;;34.00;32.70;;;11.90;96.40;;;;;;5029752;28;20548;-76
2023/02/01 10:58:20;;;;;;;35.50;34.20;;;11.80;96.30;;;;;;5043311;28;20524;-80
2023/02/01 11:01:08;;;;;;;35.00;33.70;;;11.70;96.30;;;;;;5048106;28;20104;-80
2023/02/01 11:03:40;;;;;;;34.28;32.97;;;11.60;96.40;;;;;;5014557;28;20045;-81
2023/02/01 11:06:32;;;;;;;36.63;35.22;;;11.60;96.50;;;;;;5040730;28;20097;-80
2023/02/01 11:09:02;;;;;;;37.95;36.55;;;11.70;96.50;;;;;;5025346;28;20391;-79
2023/02/01 11:11:28;;;;;;;34.28;32.97;;;11.70;96.40;;;;;;5032044;28;20083;-78
2023/02/01 11:14:14;;;;;;;37.65;36.25;;;11.60;96.30;;;;;;5051082;28;20032;-78
2023/02/01 11:16:40;;;;;;;39.45;37.95;;;11.50;96.30;;;;;;5050206;28;20032;-79
2023/02/01 11:19:06;;;;;;;38.25;36.85;;;11.50;96.30;;;;;;5045306;28;20037;-77
2023/02/01 11:21:35;;;;;;;36.60;35.20;;;11.40;96.30;;;;;;5032009;28;20524;-82
2023/02/01 11:24:04;;;;;;;37.45;36.05;;;11.40;96.40;;;;;;5031203;28;20026;-80
2023/02/01 11:26:32;;;;;;;36.75;35.35;;;11.30;96.40;;;;;;5043104;28;20021;-74
2023/02/01 11:29:13;;;;;;;34.60;33.30;;;11.30;96.40;;;;;;5050006;28;20446;-78
2023/02/01 11:31:42;;;;;;;34.65;33.35;;;11.30;96.50;;;;;;5048391;28;20107;-78
2023/02/01 11:34:26;;;;;;;34.50;33.20;;;11.30;96.50;;;;;;5015460;28;20096;-80
2023/02/01 11:36:57;;;;;;;32.08;30.88;;;11.30;96.50;;;;;;5040444;28;20029;-80
2023/02/01 11:39:22;;;;;;;32.70;31.50;;;11.30;96.50;;;;;;5035971;28;20116;-77
2023/02/01 11:41:54;;;;;;;31.67;30.48;;;11.40;96.60;;;;;;5029735;28;20429;-79
2023/02/01 11:44:26;;;;;;;32.65;31.45;;;11.50;96.50;;;;;;5030157;28;20022;-81
2023/02/01 11:46:51;;;;;;;30.42;29.23;;;11.50;96.50;;;;;;5048515;28;20028;-79
2023/02/01 11:49:25;;;;;;;28.60;27.50;;;11.60;96.60;;;;;;5050632;28;20021;-81
2023/02/01 11:51:51;;;;;;;27.50;26.40;;;11.70;96.60;;;;;;5010458;28;20474;-77
2023/02/01 11:54:31;;;;;;;25.67;24.67;;;11.80;96.50;;;;;;5025518;28;20039;-73
2023/02/01 11:57:20;;;;;;;24.55;23.55;;;11.80;96.50;;;;;;5034518;28;20120;-79
2023/02/01 12:00:04;;;;;;;23.40;22.50;;;11.80;96.50;;;;;;5050104;28;20566;-78
2023/02/01 12:02:58;;;;;;;21.45;20.55;;;11.90;96.60;;;;;;5039327;28;20021;-79
2023/02/01 12:05:29;;;;;;;20.45;19.65;;;12.00;96.60;;;;;;5038251;28;20017;-79
2023/02/01 12:08:18;;;;;;;18.65;17.85;;;12.00;96.60;;;;;;5047741;28;20053;-79
2023/02/01 12:11:07;;;;;;;19.27;18.48;;;12.10;96.60;;;;;;5050157;28;20029;-78
2023/02/01 12:13:48;;;;;;;18.65;17.85;;;12.20;96.60;;;;;;5050488;28;20026;-76
2023/02/01 12:16:48;;;;;;;19.95;19.15;;;12.20;96.50;;;;;;5049641;28;20025;-80
2023/02/01 12:19:47;;;;;;;20.10;19.30;;;12.20;96.50;;;;;;5049714;28;20390;-78
2023/02/01 12:22:34;;;;;;;19.42;18.63;;;12.20;96.50;;;;;;5049627;28;20060;-79
2023/02/01 12:25:26;;;;;;;20.65;19.85;;;12.20;96.50;;;;;;5047837;28;20081;-78
2023/02/01 12:28:14;;;;;;;19.33;18.52;;;12.20;96.50;;;;;;5048804;28;20020;-78
2023/02/01 12:31:09;;;;;;;19.30;18.50;;;12.20;96.50;;;;;;5049225;28;20017;-77
2023/02/01 12:34:12;;;;;;;19.55;18.75;;;12.20;96.50;;;;;;5047951;28;20027;-79
2023/02/01 12:36:47;;;;;;;17.27;16.58;;;12.20;96.50;;;;;;5049184;28;20021;-77
2023/02/01 12:39:21;;;;;;;16.98;16.27;;;12.20;96.40;;;;;;5049645;28;20043;-77
2023/02/01 12:42:08;;;;;;;15.73;15.02;;;12.20;96.50;;;;;;5048371;28;20500;-76
2023/02/01 12:44:48;;;;;;;14.85;14.25;;;12.30;96.60;;;;;;5049200;28;20028;-79
2023/02/01 12:47:26;;;;;;;13.50;12.90;;;12.40;96.60;;;;;;5047590;28;20052;-79
2023/02/01 12:50:01;;;;;;;12.68;12.07;;;12.40;96.50;;;;;;5049375;28;20021;-79
2023/02/01 12:52:36;;;;;;;12.80;12.20;;;12.50;96.50;;;;;;5049256;28;20025;-80
2023/02/01 12:55:24;;;;;;;10.43;9.93;;;12.50;96.60;;;;;;5048674;28;20366;-79
2023/02/01 12:57:58;;;;;;;10.07;9.57;;;12.60;96.70;;;;;;5048929;28;20072;-76
2023/02/01 13:00:32;;;;;;;8.70;8.30;;;12.80;96.70;;;;;;5047934;28;20449;-77
2023/02/01 13:03:43;;;;;;;7.78;7.38;;;12.80;96.60;;;;;;5049346;28;20120;-78
2023/02/01 13:06:32;;;;;;;6.88;6.47;;;12.90;96.60;;;;;;5048774;28;20496;-74
2023/02/01 13:09:21;;;;;;;6.45;6.05;;;13.00;96.60;;;;;;5047757;28;20025;-73
2023/02/01 13:11:48;;;;;;;6.25;5.90;;;13.00;96.60;;;;;;5048967;28;20376;-78
2023/02/01 13:14:33;;;;;;;5.38;5.07;;;13.10;96.60;;;;;;5049170;28;20082;-77
2023/02/01 13:17:06;;;;;;;4.85;4.55;;;13.10;96.60;;;;;;5048838;28;20040;-76
2023/02/01 13:19:53;;;;;;;4.60;4.30;;;13.10;96.50;;;;;;5049283;28;20026;-75
2023/02/01 13:22:45;;;;;;;4.43;4.13;;;13.00;96.40;;;;;;5053422;28;20059;-79